sensor_id;sensor_type;location;lat;lon;timestamp;temperature;humidity
70986;DHT22;58645;43.068;25.610;2023-03-23T00:01:09;10.30;99.90
70986;DHT22;58645;43.068;25.610;2023-03-23T00:03:46;10.30;99.90
70986;DHT22;58645;43.068;25.610;2023-03-23T00:06:13;10.30;99.90
70986;DHT22;58645;43.068;25.610;2023-03-23T00:08:44;10.20;99.90
70986;DHT22;58645;43.068;25.610;2023-03-23T00:11:16;10.20;99.90
70986;DHT22;58645;43.068;25.610;2023-03-23T00:13:44;10.20;99.90
70986;DHT22;58645;43.068;25.610;2023-03-23T00:16:12;10.10;99.90
70986;DHT22;58645;43.068;25.610;2023-03-23T00:18:49;10.10;99.90
70986;DHT22;58645;43.068;25.610;2023-03-23T00:21:30;10.10;99.90
70986;DHT22;58645;43.068;25.610;2023-03-23T00:24:02;10.10;99.90
70986;DHT22;58645;43.068;25.610;2023-03-23T00:26:28;10.10;99.90
70986;DHT22;58645;43.068;25.610;2023-03-23T00:28:55;10.10;99.90
70986;DHT22;58645;43.068;25.610;2023-03-23T00:31:21;10.10;99.90
70986;DHT22;58645;43.068;25.610;2023-03-23T00:33:46;10.20;99.90
70986;DHT22;58645;43.068;25.610;2023-03-23T00:36:13;10.10;99.90
70986;DHT22;58645;43.068;25.610;2023-03-23T00:38:39;10.10;99.90
70986;DHT22;58645;43.068;25.610;2023-03-23T00:41:06;10.10;99.90
70986;DHT22;58645;43.068;25.610;2023-03-23T00:43:32;10.20;99.90
70986;DHT22;58645;43.068;25.610;2023-03-23T00:46:02;10.10;99.90
70986;DHT22;58645;43.068;25.610;2023-03-23T00:48:34;10.10;99.90
70986;DHT22;58645;43.068;25.610;2023-03-23T00:51:02;10.10;99.90
70986;DHT22;58645;43.068;25.610;2023-03-23T00:53:32;10.00;99.90
70986;DHT22;58645;43.068;25.610;2023-03-23T00:55:58;10.00;99.90
70986;DHT22;58645;43.068;25.610;2023-03-23T00:58:24;10.00;99.90
70986;DHT22;58645;43.068;25.610;2023-03-23T01:00:49;10.00;99.90
70986;DHT22;58645;43.068;25.610;2023-03-23T01:03:15;10.00;99.90
70986;DHT22;58645;43.068;25.610;2023-03-23T01:05:45;10.00;99.90
70986;DHT22;58645;43.068;25.610;2023-03-23T01:08:13;10.00;99.90
70986;DHT22;58645;43.068;25.610;2023-03-23T01:10:40;10.00;99.90
70986;DHT22;58645;43.068;25.610;2023-03-23T01:13:07;9.90;99.90
70986;DHT22;58645;43.068;25.610;2023-03-23T01:15:33;9.90;99.90
70986;DHT22;58645;43.068;25.610;2023-03-23T01:17:59;10.00;99.90
70986;DHT22;58645;43.068;25.610;2023-03-23T01:20:25;9.90;99.90
70986;DHT22;58645;43.068;25.610;2023-03-23T01:22:54;9.90;99.90
70986;DHT22;58645;43.068;25.610;2023-03-23T01:25:29;9.90;99.90
70986;DHT22;58645;43.068;25.610;2023-03-23T01:27:56;9.90;99.90
70986;DHT22;58645;43.068;25.610;2023-03-23T01:30:22;9.80;99.90
70986;DHT22;58645;43.068;25.610;2023-03-23T01:32:48;9.80;99.90
70986;DHT22;58645;43.068;25.610;2023-03-23T01:35:15;9.70;99.90
70986;DHT22;58645;43.068;25.610;2023-03-23T01:37:41;9.80;99.90
70986;DHT22;58645;43.068;25.610;2023-03-23T01:40:08;9.80;99.90
70986;DHT22;58645;43.068;25.610;2023-03-23T01:42:36;9.80;99.90
70986;DHT22;58645;43.068;25.610;2023-03-23T01:48:22;9.70;99.90
70986;DHT22;58645;43.068;25.610;2023-03-23T01:53:21;9.70;99.90
70986;DHT22;58645;43.068;25.610;2023-03-23T01:55:51;9.70;99.90
70986;DHT22;58645;43.068;25.610;2023-03-23T01:58:20;9.60;99.90
70986;DHT22;58645;43.068;25.610;2023-03-23T02:00:47;9.60;99.90
70986;DHT22;58645;43.068;25.610;2023-03-23T02:03:14;9.60;99.90
70986;DHT22;58645;43.068;25.610;2023-03-23T02:05:43;9.60;99.90
70986;DHT22;58645;43.068;25.610;2023-03-23T02:08:10;9.60;99.90
70986;DHT22;58645;43.068;25.610;2023-03-23T02:10:38;9.60;99.90
70986;DHT22;58645;43.068;25.610;2023-03-23T02:13:06;9.60;99.90
70986;DHT22;58645;43.068;25.610;2023-03-23T02:16:06;9.60;99.90
70986;DHT22;58645;43.068;25.610;2023-03-23T02:27:17;9.60;99.90
70986;DHT22;58645;43.068;25.610;2023-03-23T02:36:13;9.60;99.90
70986;DHT22;58645;43.068;25.610;2023-03-23T02:38:51;9.60;99.90
70986;DHT22;58645;43.068;25.610;2023-03-23T02:41:24;9.60;99.90
70986;DHT22;58645;43.068;25.610;2023-03-23T02:43:51;9.70;99.90
70986;DHT22;58645;43.068;25.610;2023-03-23T02:46:19;9.70;99.90
70986;DHT22;58645;43.068;25.610;2023-03-23T02:48:47;9.70;99.90
70986;DHT22;58645;43.068;25.610;2023-03-23T02:51:18;9.80;99.90
70986;DHT22;58645;43.068;25.610;2023-03-23T02:53:45;9.70;99.90
70986;DHT22;58645;43.068;25.610;2023-03-23T02:56:12;9.70;99.90
70986;DHT22;58645;43.068;25.610;2023-03-23T02:58:39;9.70;99.90
70986;DHT22;58645;43.068;25.610;2023-03-23T03:04:30;9.80;99.90
70986;DHT22;58645;43.068;25.610;2023-03-23T03:12:30;9.70;99.90
70986;DHT22;58645;43.068;25.610;2023-03-23T03:17:36;9.80;99.90
70986;DHT22;58645;43.068;25.610;2023-03-23T03:20:07;9.70;99.90
70986;DHT22;58645;43.068;25.610;2023-03-23T03:22:38;9.70;99.90
70986;DHT22;58645;43.068;25.610;2023-03-23T03:25:08;9.80;99.90
70986;DHT22;58645;43.068;25.610;2023-03-23T03:27:38;9.80;99.90
70986;DHT22;58645;43.068;25.610;2023-03-23T03:30:09;9.80;99.90
70986;DHT22;58645;43.068;25.610;2023-03-23T03:32:47;9.80;99.90
70986;DHT22;58645;43.068;25.610;2023-03-23T03:35:15;9.80;99.90
70986;DHT22;58645;43.068;25.610;2023-03-23T03:37:41;9.80;99.90
70986;DHT22;58645;43.068;25.610;2023-03-23T03:40:13;9.80;99.90
70986;DHT22;58645;43.068;25.610;2023-03-23T03:42:41;9.80;99.90
70986;DHT22;58645;43.068;25.610;2023-03-23T03:45:09;9.80;99.90
70986;DHT22;58645;43.068;25.610;2023-03-23T03:47:35;9.80;99.90
70986;DHT22;58645;43.068;25.610;2023-03-23T03:50:00;9.80;99.90
70986;DHT22;58645;43.068;25.610;2023-03-23T03:52:26;9.80;99.90
70986;DHT22;58645;43.068;25.610;2023-03-23T03:54:53;9.70;99.90
70986;DHT22;58645;43.068;25.610;2023-03-23T03:57:19;9.70;99.90
70986;DHT22;58645;43.068;25.610;2023-03-23T03:59:45;9.70;99.90
70986;DHT22;58645;43.068;25.610;2023-03-23T04:02:11;9.70;99.90
70986;DHT22;58645;43.068;25.610;2023-03-23T04:04:40;9.70;99.90
70986;DHT22;58645;43.068;25.610;2023-03-23T04:07:07;9.70;99.90
70986;DHT22;58645;43.068;25.610;2023-03-23T04:09:36;9.70;99.90
70986;DHT22;58645;43.068;25.610;2023-03-23T04:12:02;9.70;99.90
70986;DHT22;58645;43.068;25.610;2023-03-23T04:14:28;9.70;99.90
70986;DHT22;58645;43.068;25.610;2023-03-23T04:16:54;9.70;99.90
70986;DHT22;58645;43.068;25.610;2023-03-23T04:19:23;9.70;99.90
70986;DHT22;58645;43.068;25.610;2023-03-23T04:21:48;9.60;99.90
70986;DHT22;58645;43.068;25.610;2023-03-23T04:24:15;9.60;99.90
70986;DHT22;58645;43.068;25.610;2023-03-23T04:26:41;9.60;99.90
70986;DHT22;58645;43.068;25.610;2023-03-23T04:29:08;9.60;99.90
70986;DHT22;58645;43.068;25.610;2023-03-23T04:31:34;9.60;99.90
70986;DHT22;58645;43.068;25.610;2023-03-23T04:34:01;9.60;99.90
70986;DHT22;58645;43.068;25.610;2023-03-23T04:36:28;9.60;99.90
70986;DHT22;58645;43.068;25.610;2023-03-23T04:38:59;9.60;99.90
70986;DHT22;58645;43.068;25.610;2023-03-23T04:41:25;9.60;99.90
70986;DHT22;58645;43.068;25.610;2023-03-23T04:43:52;9.60;99.90
70986;DHT22;58645;43.068;25.610;2023-03-23T04:46:19;9.60;99.90
70986;DHT22;58645;43.068;25.610;2023-03-23T04:48:46;9.60;99.90
70986;DHT22;58645;43.068;25.610;2023-03-23T04:51:13;9.60;99.90
70986;DHT22;58645;43.068;25.610;2023-03-23T04:53:39;9.60;99.90
70986;DHT22;58645;43.068;25.610;2023-03-23T04:56:05;9.60;99.90
70986;DHT22;58645;43.068;25.610;2023-03-23T04:58:30;9.60;99.90
70986;DHT22;58645;43.068;25.610;2023-03-23T05:01:00;9.60;99.90
70986;DHT22;58645;43.068;25.610;2023-03-23T05:03:26;9.60;99.90
70986;DHT22;58645;43.068;25.610;2023-03-23T05:05:54;9.50;99.90
70986;DHT22;58645;43.068;25.610;2023-03-23T05:08:21;9.60;99.90
70986;DHT22;58645;43.068;25.610;2023-03-23T05:10:56;9.60;99.90
70986;DHT22;58645;43.068;25.610;2023-03-23T05:13:22;9.60;99.90
70986;DHT22;58645;43.068;25.610;2023-03-23T05:15:48;9.60;99.90
70986;DHT22;58645;43.068;25.610;2023-03-23T05:18:14;9.60;99.90
70986;DHT22;58645;43.068;25.610;2023-03-23T05:20:40;9.70;99.90
70986;DHT22;58645;43.068;25.610;2023-03-23T05:23:08;9.70;99.90
70986;DHT22;58645;43.068;25.610;2023-03-23T05:25:34;9.70;99.90
70986;DHT22;58645;43.068;25.610;2023-03-23T05:28:07;9.60;99.90
70986;DHT22;58645;43.068;25.610;2023-03-23T05:30:34;9.60;99.90
70986;DHT22;58645;43.068;25.610;2023-03-23T05:33:00;9.60;99.90
70986;DHT22;58645;43.068;25.610;2023-03-23T05:35:26;9.60;99.90
70986;DHT22;58645;43.068;25.610;2023-03-23T05:37:52;9.70;99.90
70986;DHT22;58645;43.068;25.610;2023-03-23T05:40:19;9.70;99.90
70986;DHT22;58645;43.068;25.610;2023-03-23T05:42:48;9.70;99.90
70986;DHT22;58645;43.068;25.610;2023-03-23T05:45:14;9.70;99.90
70986;DHT22;58645;43.068;25.610;2023-03-23T05:47:41;9.80;99.90
70986;DHT22;58645;43.068;25.610;2023-03-23T05:50:14;9.80;99.90
70986;DHT22;58645;43.068;25.610;2023-03-23T05:53:01;9.50;99.90
70986;DHT22;58645;43.068;25.610;2023-03-23T05:56:57;9.80;99.90
70986;DHT22;58645;43.068;25.610;2023-03-23T06:02:30;9.90;99.90
70986;DHT22;58645;43.068;25.610;2023-03-23T06:05:08;9.90;99.90
70986;DHT22;58645;43.068;25.610;2023-03-23T06:07:46;10.00;99.90
70986;DHT22;58645;43.068;25.610;2023-03-23T06:10:31;10.00;99.90
70986;DHT22;58645;43.068;25.610;2023-03-23T06:13:02;10.00;99.90
70986;DHT22;58645;43.068;25.610;2023-03-23T06:15:28;10.00;99.90
70986;DHT22;58645;43.068;25.610;2023-03-23T06:18:01;9.90;99.90
70986;DHT22;58645;43.068;25.610;2023-03-23T06:20:27;10.00;99.90
70986;DHT22;58645;43.068;25.610;2023-03-23T06:22:56;9.90;99.90
70986;DHT22;58645;43.068;25.610;2023-03-23T06:25:23;10.00;99.90
70986;DHT22;58645;43.068;25.610;2023-03-23T06:27:50;10.00;99.90
70986;DHT22;58645;43.068;25.610;2023-03-23T06:30:18;10.00;99.90
70986;DHT22;58645;43.068;25.610;2023-03-23T06:32:44;10.00;99.90
70986;DHT22;58645;43.068;25.610;2023-03-23T06:35:13;10.10;99.90
70986;DHT22;58645;43.068;25.610;2023-03-23T06:37:39;10.20;99.90
70986;DHT22;58645;43.068;25.610;2023-03-23T06:40:06;10.30;99.90
70986;DHT22;58645;43.068;25.610;2023-03-23T06:42:33;10.40;99.90
70986;DHT22;58645;43.068;25.610;2023-03-23T06:44:59;10.40;99.90
70986;DHT22;58645;43.068;25.610;2023-03-23T06:47:37;10.40;99.90
70986;DHT22;58645;43.068;25.610;2023-03-23T06:50:04;10.50;99.90
70986;DHT22;58645;43.068;25.610;2023-03-23T06:52:30;10.50;99.90
70986;DHT22;58645;43.068;25.610;2023-03-23T06:54:57;10.50;99.90
70986;DHT22;58645;43.068;25.610;2023-03-23T06:57:22;10.50;99.90
70986;DHT22;58645;43.068;25.610;2023-03-23T06:59:48;10.50;99.90
70986;DHT22;58645;43.068;25.610;2023-03-23T07:02:14;10.50;99.90
70986;DHT22;58645;43.068;25.610;2023-03-23T07:04:43;10.50;99.90
70986;DHT22;58645;43.068;25.610;2023-03-23T07:07:10;10.50;99.90
70986;DHT22;58645;43.068;25.610;2023-03-23T07:09:39;10.50;99.90
70986;DHT22;58645;43.068;25.610;2023-03-23T07:12:05;10.60;99.90
70986;DHT22;58645;43.068;25.610;2023-03-23T07:14:31;10.70;99.90
70986;DHT22;58645;43.068;25.610;2023-03-23T07:16:57;10.70;99.90
70986;DHT22;58645;43.068;25.610;2023-03-23T07:19:23;10.70;99.90
70986;DHT22;58645;43.068;25.610;2023-03-23T07:21:49;10.60;99.90
70986;DHT22;58645;43.068;25.610;2023-03-23T07:24:15;10.70;99.90
70986;DHT22;58645;43.068;25.610;2023-03-23T07:26:49;10.70;99.90
70986;DHT22;58645;43.068;25.610;2023-03-23T07:29:22;10.80;99.90
70986;DHT22;58645;43.068;25.610;2023-03-23T07:31:47;10.80;99.90
70986;DHT22;58645;43.068;25.610;2023-03-23T07:34:13;10.80;99.90
70986;DHT22;58645;43.068;25.610;2023-03-23T07:36:43;10.80;99.90
70986;DHT22;58645;43.068;25.610;2023-03-23T07:39:09;10.80;99.90
70986;DHT22;58645;43.068;25.610;2023-03-23T07:41:35;10.90;99.90
70986;DHT22;58645;43.068;25.610;2023-03-23T07:44:04;10.90;99.90
70986;DHT22;58645;43.068;25.610;2023-03-23T07:46:33;10.90;99.90
70986;DHT22;58645;43.068;25.610;2023-03-23T07:48:59;10.90;99.90
70986;DHT22;58645;43.068;25.610;2023-03-23T07:51:33;10.80;99.90
70986;DHT22;58645;43.068;25.610;2023-03-23T07:54:08;10.70;99.90
70986;DHT22;58645;43.068;25.610;2023-03-23T07:56:35;10.80;99.90
70986;DHT22;58645;43.068;25.610;2023-03-23T07:59:02;10.90;99.90
70986;DHT22;58645;43.068;25.610;2023-03-23T08:01:30;11.00;99.90
70986;DHT22;58645;43.068;25.610;2023-03-23T08:03:56;11.20;99.90
70986;DHT22;58645;43.068;25.610;2023-03-23T08:06:24;11.40;99.90
70986;DHT22;58645;43.068;25.610;2023-03-23T08:08:50;11.50;99.90
70986;DHT22;58645;43.068;25.610;2023-03-23T08:11:17;11.60;99.90
70986;DHT22;58645;43.068;25.610;2023-03-23T08:13:44;11.60;99.90
70986;DHT22;58645;43.068;25.610;2023-03-23T08:16:10;11.60;99.90
70986;DHT22;58645;43.068;25.610;2023-03-23T08:18:37;11.50;99.90
70986;DHT22;58645;43.068;25.610;2023-03-23T08:21:04;11.50;99.90
70986;DHT22;58645;43.068;25.610;2023-03-23T08:23:31;11.60;99.90
70986;DHT22;58645;43.068;25.610;2023-03-23T08:25:58;11.80;99.90
70986;DHT22;58645;43.068;25.610;2023-03-23T08:28:24;11.80;99.90
70986;DHT22;58645;43.068;25.610;2023-03-23T08:30:50;11.90;99.90
70986;DHT22;58645;43.068;25.610;2023-03-23T08:33:17;12.00;99.90
70986;DHT22;58645;43.068;25.610;2023-03-23T08:35:43;12.10;99.90
70986;DHT22;58645;43.068;25.610;2023-03-23T08:38:10;12.10;99.90
70986;DHT22;58645;43.068;25.610;2023-03-23T08:40:37;12.30;99.90
70986;DHT22;58645;43.068;25.610;2023-03-23T08:43:07;12.40;99.90
70986;DHT22;58645;43.068;25.610;2023-03-23T08:45:32;12.30;99.90
70986;DHT22;58645;43.068;25.610;2023-03-23T08:47:58;12.50;99.90
70986;DHT22;58645;43.068;25.610;2023-03-23T08:50:27;12.50;99.90
70986;DHT22;58645;43.068;25.610;2023-03-23T08:52:54;12.60;99.90
70986;DHT22;58645;43.068;25.610;2023-03-23T08:55:21;12.80;99.90
70986;DHT22;58645;43.068;25.610;2023-03-23T08:57:47;12.80;99.90
70986;DHT22;58645;43.068;25.610;2023-03-23T09:00:19;12.80;99.90
70986;DHT22;58645;43.068;25.610;2023-03-23T09:02:52;12.90;99.90
70986;DHT22;58645;43.068;25.610;2023-03-23T09:05:21;13.20;99.90
70986;DHT22;58645;43.068;25.610;2023-03-23T09:07:49;13.30;99.90
70986;DHT22;58645;43.068;25.610;2023-03-23T09:10:16;13.30;99.90
70986;DHT22;58645;43.068;25.610;2023-03-23T09:12:52;13.40;99.90
70986;DHT22;58645;43.068;25.610;2023-03-23T09:15:18;13.50;99.90
70986;DHT22;58645;43.068;25.610;2023-03-23T09:17:45;13.60;99.90
70986;DHT22;58645;43.068;25.610;2023-03-23T09:20:14;13.80;99.90
70986;DHT22;58645;43.068;25.610;2023-03-23T09:22:53;14.10;99.90
70986;DHT22;58645;43.068;25.610;2023-03-23T09:25:21;14.20;99.90
70986;DHT22;58645;43.068;25.610;2023-03-23T09:27:56;14.20;99.90
70986;DHT22;58645;43.068;25.610;2023-03-23T09:30:25;14.00;99.90
70986;DHT22;58645;43.068;25.610;2023-03-23T09:32:52;14.10;99.90
70986;DHT22;58645;43.068;25.610;2023-03-23T09:35:19;14.40;99.90
70986;DHT22;58645;43.068;25.610;2023-03-23T09:37:48;14.60;99.90
70986;DHT22;58645;43.068;25.610;2023-03-23T09:40:22;14.70;99.90
70986;DHT22;58645;43.068;25.610;2023-03-23T09:45:31;15.30;99.90
70986;DHT22;58645;43.068;25.610;2023-03-23T09:48:24;15.50;99.90
70986;DHT22;58645;43.068;25.610;2023-03-23T09:50:56;15.70;99.90
70986;DHT22;58645;43.068;25.610;2023-03-23T09:53:36;15.90;97.00
70986;DHT22;58645;43.068;25.610;2023-03-23T09:56:10;15.90;97.50
70986;DHT22;58645;43.068;25.610;2023-03-23T10:01:36;16.20;92.00
70986;DHT22;58645;43.068;25.610;2023-03-23T10:04:12;16.10;88.40
70986;DHT22;58645;43.068;25.610;2023-03-23T10:06:38;16.20;86.90
70986;DHT22;58645;43.068;25.610;2023-03-23T10:09:05;16.40;88.30
70986;DHT22;58645;43.068;25.610;2023-03-23T10:17:33;16.40;83.70
70986;DHT22;58645;43.068;25.610;2023-03-23T10:20:25;16.10;83.30
70986;DHT22;58645;43.068;25.610;2023-03-23T10:25:52;16.10;85.00
70986;DHT22;58645;43.068;25.610;2023-03-23T10:28:41;16.10;85.20
70986;DHT22;58645;43.068;25.610;2023-03-23T10:31:35;16.20;86.60
70986;DHT22;58645;43.068;25.610;2023-03-23T10:34:08;16.10;90.00
70986;DHT22;58645;43.068;25.610;2023-03-23T10:36:38;16.10;86.40
70986;DHT22;58645;43.068;25.610;2023-03-23T10:39:12;15.70;86.90
70986;DHT22;58645;43.068;25.610;2023-03-23T10:41:42;15.70;89.70
70986;DHT22;58645;43.068;25.610;2023-03-23T10:44:27;15.80;89.80
70986;DHT22;58645;43.068;25.610;2023-03-23T10:47:05;15.40;86.20
70986;DHT22;58645;43.068;25.610;2023-03-23T10:49:47;15.30;87.50
70986;DHT22;58645;43.068;25.610;2023-03-23T10:52:34;15.40;91.60
70986;DHT22;58645;43.068;25.610;2023-03-23T10:55:10;15.40;91.10
70986;DHT22;58645;43.068;25.610;2023-03-23T10:57:40;15.20;90.30
70986;DHT22;58645;43.068;25.610;2023-03-23T11:02:46;15.50;89.00
70986;DHT22;58645;43.068;25.610;2023-03-23T11:05:21;15.40;89.10
70986;DHT22;58645;43.068;25.610;2023-03-23T11:07:51;15.70;89.20
70986;DHT22;58645;43.068;25.610;2023-03-23T11:10:42;15.90;88.70
70986;DHT22;58645;43.068;25.610;2023-03-23T11:13:17;16.10;86.80
70986;DHT22;58645;43.068;25.610;2023-03-23T11:15:46;16.10;84.00
70986;DHT22;58645;43.068;25.610;2023-03-23T11:18:22;15.90;85.60
70986;DHT22;58645;43.068;25.610;2023-03-23T11:20:55;15.80;84.70
70986;DHT22;58645;43.068;25.610;2023-03-23T11:23:31;15.60;86.80
70986;DHT22;58645;43.068;25.610;2023-03-23T11:29:14;15.50;86.70
70986;DHT22;58645;43.068;25.610;2023-03-23T11:31:44;15.20;85.60
70986;DHT22;58645;43.068;25.610;2023-03-23T11:36:37;15.10;88.70
70986;DHT22;58645;43.068;25.610;2023-03-23T11:39:27;15.10;90.90
70986;DHT22;58645;43.068;25.610;2023-03-23T11:41:54;15.00;90.70
70986;DHT22;58645;43.068;25.610;2023-03-23T11:44:22;15.00;88.60
70986;DHT22;58645;43.068;25.610;2023-03-23T11:47:05;15.00;88.30
70986;DHT22;58645;43.068;25.610;2023-03-23T11:52:31;14.80;87.70
70986;DHT22;58645;43.068;25.610;2023-03-23T11:55:15;14.90;87.00
70986;DHT22;58645;43.068;25.610;2023-03-23T11:57:42;15.10;86.60
70986;DHT22;58645;43.068;25.610;2023-03-23T12:00:17;15.20;87.30
70986;DHT22;58645;43.068;25.610;2023-03-23T12:06:12;15.70;85.00
70986;DHT22;58645;43.068;25.610;2023-03-23T12:14:47;15.20;82.70
70986;DHT22;58645;43.068;25.610;2023-03-23T12:23:01;14.60;85.70
70986;DHT22;58645;43.068;25.610;2023-03-23T12:28:19;14.40;87.50
70986;DHT22;58645;43.068;25.610;2023-03-23T12:31:19;14.20;86.70
70986;DHT22;58645;43.068;25.610;2023-03-23T12:36:52;14.10;88.50
70986;DHT22;58645;43.068;25.610;2023-03-23T12:44:55;14.00;86.60
70986;DHT22;58645;43.068;25.610;2023-03-23T12:47:45;14.20;90.20
70986;DHT22;58645;43.068;25.610;2023-03-23T12:50:32;14.30;90.10
70986;DHT22;58645;43.068;25.610;2023-03-23T12:53:27;14.30;88.40
70986;DHT22;58645;43.068;25.610;2023-03-23T12:56:16;14.30;88.90
70986;DHT22;58645;43.068;25.610;2023-03-23T12:58:50;14.40;89.00
70986;DHT22;58645;43.068;25.610;2023-03-23T13:01:22;14.50;88.00
70986;DHT22;58645;43.068;25.610;2023-03-23T13:06:46;14.60;85.10
70986;DHT22;58645;43.068;25.610;2023-03-23T13:09:46;14.60;88.10
70986;DHT22;58645;43.068;25.610;2023-03-23T13:12:14;14.70;87.30
70986;DHT22;58645;43.068;25.610;2023-03-23T13:15:01;14.70;88.40
70986;DHT22;58645;43.068;25.610;2023-03-23T13:23:14;14.80;87.80
70986;DHT22;58645;43.068;25.610;2023-03-23T13:25:51;14.70;84.70
70986;DHT22;58645;43.068;25.610;2023-03-23T13:28:23;14.60;85.70
70986;DHT22;58645;43.068;25.610;2023-03-23T13:31:04;14.50;88.10
70986;DHT22;58645;43.068;25.610;2023-03-23T13:33:36;14.50;87.70
70986;DHT22;58645;43.068;25.610;2023-03-23T13:36:10;14.60;86.90
70986;DHT22;58645;43.068;25.610;2023-03-23T13:38:43;14.50;85.10
70986;DHT22;58645;43.068;25.610;2023-03-23T13:41:15;14.60;86.80
70986;DHT22;58645;43.068;25.610;2023-03-23T13:43:42;14.60;85.60
70986;DHT22;58645;43.068;25.610;2023-03-23T13:46:29;14.60;85.50
70986;DHT22;58645;43.068;25.610;2023-03-23T13:49:19;14.70;84.70
70986;DHT22;58645;43.068;25.610;2023-03-23T13:52:01;14.70;83.30
70986;DHT22;58645;43.068;25.610;2023-03-23T13:54:45;14.70;84.30
70986;DHT22;58645;43.068;25.610;2023-03-23T13:57:25;14.80;83.30
70986;DHT22;58645;43.068;25.610;2023-03-23T13:59:59;14.80;84.40
70986;DHT22;58645;43.068;25.610;2023-03-23T14:02:40;14.80;82.70
70986;DHT22;58645;43.068;25.610;2023-03-23T14:05:37;14.70;82.50
70986;DHT22;58645;43.068;25.610;2023-03-23T14:10:54;14.70;83.00
70986;DHT22;58645;43.068;25.610;2023-03-23T14:16:14;14.90;82.40
70986;DHT22;58645;43.068;25.610;2023-03-23T14:18:46;14.80;82.20
70986;DHT22;58645;43.068;25.610;2023-03-23T14:21:16;14.90;84.30
70986;DHT22;58645;43.068;25.610;2023-03-23T14:23:42;14.90;85.10
70986;DHT22;58645;43.068;25.610;2023-03-23T14:26:17;14.90;84.00
70986;DHT22;58645;43.068;25.610;2023-03-23T14:28:45;14.90;84.90
70986;DHT22;58645;43.068;25.610;2023-03-23T14:31:26;14.90;83.90
70986;DHT22;58645;43.068;25.610;2023-03-23T14:33:56;14.90;84.00
70986;DHT22;58645;43.068;25.610;2023-03-23T14:36:29;14.80;84.10
70986;DHT22;58645;43.068;25.610;2023-03-23T14:41:35;14.70;84.80
70986;DHT22;58645;43.068;25.610;2023-03-23T14:44:02;14.50;86.00
70986;DHT22;58645;43.068;25.610;2023-03-23T14:46:30;14.50;85.90
70986;DHT22;58645;43.068;25.610;2023-03-23T14:49:00;14.50;86.90
70986;DHT22;58645;43.068;25.610;2023-03-23T14:51:29;14.40;86.40
70986;DHT22;58645;43.068;25.610;2023-03-23T14:53:59;14.40;86.50
70986;DHT22;58645;43.068;25.610;2023-03-23T14:56:34;14.40;86.10
70986;DHT22;58645;43.068;25.610;2023-03-23T14:59:05;14.40;87.00
70986;DHT22;58645;43.068;25.610;2023-03-23T15:01:33;14.40;86.00
70986;DHT22;58645;43.068;25.610;2023-03-23T15:06:35;14.20;86.80
70986;DHT22;58645;43.068;25.610;2023-03-23T15:09:07;14.20;86.20
70986;DHT22;58645;43.068;25.610;2023-03-23T15:11:38;14.20;87.20
70986;DHT22;58645;43.068;25.610;2023-03-23T15:14:30;14.20;86.80
70986;DHT22;58645;43.068;25.610;2023-03-23T15:16:59;14.20;86.10
70986;DHT22;58645;43.068;25.610;2023-03-23T15:19:34;14.20;86.40
70986;DHT22;58645;43.068;25.610;2023-03-23T15:22:31;14.10;86.70
70986;DHT22;58645;43.068;25.610;2023-03-23T15:25:12;14.10;86.80
70986;DHT22;58645;43.068;25.610;2023-03-23T15:27:44;14.00;86.40
70986;DHT22;58645;43.068;25.610;2023-03-23T15:32:54;13.90;87.70
70986;DHT22;58645;43.068;25.610;2023-03-23T15:35:23;13.80;89.30
70986;DHT22;58645;43.068;25.610;2023-03-23T15:38:03;13.70;90.30
70986;DHT22;58645;43.068;25.610;2023-03-23T15:40:34;13.60;90.20
70986;DHT22;58645;43.068;25.610;2023-03-23T15:43:17;13.50;91.30
70986;DHT22;58645;43.068;25.610;2023-03-23T15:51:27;13.20;93.80
70986;DHT22;58645;43.068;25.610;2023-03-23T15:53:54;13.10;93.80
70986;DHT22;58645;43.068;25.610;2023-03-23T15:56:21;13.10;93.90
70986;DHT22;58645;43.068;25.610;2023-03-23T15:58:47;13.00;94.10
70986;DHT22;58645;43.068;25.610;2023-03-23T16:01:22;12.90;94.80
70986;DHT22;58645;43.068;25.610;2023-03-23T16:04:04;12.80;95.80
70986;DHT22;58645;43.068;25.610;2023-03-23T16:06:32;12.80;96.00
70986;DHT22;58645;43.068;25.610;2023-03-23T16:08:59;12.60;96.60
70986;DHT22;58645;43.068;25.610;2023-03-23T16:11:27;12.60;97.20
70986;DHT22;58645;43.068;25.610;2023-03-23T16:13:54;12.50;98.20
70986;DHT22;58645;43.068;25.610;2023-03-23T16:16:30;12.40;98.60
70986;DHT22;58645;43.068;25.610;2023-03-23T16:18:56;12.40;99.30
70986;DHT22;58645;43.068;25.610;2023-03-23T16:21:22;12.30;99.90
70986;DHT22;58645;43.068;25.610;2023-03-23T16:23:48;12.20;99.90
70986;DHT22;58645;43.068;25.610;2023-03-23T16:26:15;12.10;99.90
70986;DHT22;58645;43.068;25.610;2023-03-23T16:28:41;12.10;99.90
70986;DHT22;58645;43.068;25.610;2023-03-23T16:31:07;12.10;99.90
70986;DHT22;58645;43.068;25.610;2023-03-23T16:33:33;12.00;99.90
70986;DHT22;58645;43.068;25.610;2023-03-23T16:35:58;11.90;99.90
70986;DHT22;58645;43.068;25.610;2023-03-23T16:38:25;11.90;99.90
70986;DHT22;58645;43.068;25.610;2023-03-23T16:40:50;11.90;99.90
70986;DHT22;58645;43.068;25.610;2023-03-23T16:43:16;11.80;99.90
70986;DHT22;58645;43.068;25.610;2023-03-23T16:45:44;11.70;99.90
70986;DHT22;58645;43.068;25.610;2023-03-23T16:48:12;11.70;99.90
70986;DHT22;58645;43.068;25.610;2023-03-23T16:50:38;11.70;99.90
70986;DHT22;58645;43.068;25.610;2023-03-23T16:53:06;11.60;99.90
70986;DHT22;58645;43.068;25.610;2023-03-23T16:55:34;11.60;99.90
70986;DHT22;58645;43.068;25.610;2023-03-23T16:58:00;11.60;99.90
70986;DHT22;58645;43.068;25.610;2023-03-23T17:00:26;11.50;99.90
70986;DHT22;58645;43.068;25.610;2023-03-23T17:02:54;11.50;99.90
70986;DHT22;58645;43.068;25.610;2023-03-23T17:05:24;11.50;99.90
70986;DHT22;58645;43.068;25.610;2023-03-23T17:07:50;11.40;99.90
70986;DHT22;58645;43.068;25.610;2023-03-23T17:10:17;11.40;99.90
70986;DHT22;58645;43.068;25.610;2023-03-23T17:12:43;11.40;99.90
70986;DHT22;58645;43.068;25.610;2023-03-23T17:15:10;11.30;99.90
70986;DHT22;58645;43.068;25.610;2023-03-23T17:17:37;11.30;99.90
70986;DHT22;58645;43.068;25.610;2023-03-23T17:20:04;11.20;99.90
70986;DHT22;58645;43.068;25.610;2023-03-23T17:22:31;11.20;99.90
70986;DHT22;58645;43.068;25.610;2023-03-23T17:24:57;11.10;99.90
70986;DHT22;58645;43.068;25.610;2023-03-23T17:27:23;11.10;99.90
70986;DHT22;58645;43.068;25.610;2023-03-23T17:29:49;11.00;99.90
70986;DHT22;58645;43.068;25.610;2023-03-23T17:32:16;11.00;99.90
70986;DHT22;58645;43.068;25.610;2023-03-23T17:34:42;10.90;99.90
70986;DHT22;58645;43.068;25.610;2023-03-23T17:37:08;10.90;99.90